sensor_id;sensor_type;location;lat;lon;timestamp;P1;durP1;ratioP1;P2;durP2;ratioP2
1178;SDS011;578;48.408;10.004;2023-12-28T00:01:41;12.60;;;11.30;;
1178;SDS011;578;48.408;10.004;2023-12-28T00:03:43;12.63;;;11.38;;
1178;SDS011;578;48.408;10.004;2023-12-28T00:05:44;16.43;;;11.83;;
1178;SDS011;578;48.408;10.004;2023-12-28T00:07:45;12.98;;;11.60;;
1178;SDS011;578;48.408;10.004;2023-12-28T00:09:48;12.80;;;11.50;;
1178;SDS011;578;48.408;10.004;2023-12-28T00:11:50;13.10;;;11.75;;
1178;SDS011;578;48.408;10.004;2023-12-28T00:13:51;12.70;;;11.40;;
1178;SDS011;578;48.408;10.004;2023-12-28T00:15:53;13.73;;;12.30;;
1178;SDS011;578;48.408;10.004;2023-12-28T00:17:54;14.25;;;12.60;;
1178;SDS011;578;48.408;10.004;2023-12-28T00:19:56;14.18;;;12.80;;
1178;SDS011;578;48.408;10.004;2023-12-28T00:21:58;14.52;;;12.30;;
1178;SDS011;578;48.408;10.004;2023-12-28T00:24:00;13.45;;;12.13;;
1178;SDS011;578;48.408;10.004;2023-12-28T00:26:02;21.27;;;19.07;;
1178;SDS011;578;48.408;10.004;2023-12-28T00:28:04;26.08;;;23.13;;
1178;SDS011;578;48.408;10.004;2023-12-28T00:30:05;14.18;;;12.48;;
1178;SDS011;578;48.408;10.004;2023-12-28T00:32:08;14.52;;;13.10;;
1178;SDS011;578;48.408;10.004;2023-12-28T00:34:09;14.77;;;12.45;;
1178;SDS011;578;48.408;10.004;2023-12-28T00:36:12;16.25;;;13.95;;
1178;SDS011;578;48.408;10.004;2023-12-28T00:38:14;13.40;;;12.10;;
1178;SDS011;578;48.408;10.004;2023-12-28T00:40:16;14.40;;;11.90;;
1178;SDS011;578;48.408;10.004;2023-12-28T00:42:19;14.73;;;13.05;;
1178;SDS011;578;48.408;10.004;2023-12-28T00:44:21;12.20;;;11.10;;
1178;SDS011;578;48.408;10.004;2023-12-28T00:46:22;16.00;;;11.55;;
1178;SDS011;578;48.408;10.004;2023-12-28T00:48:24;11.80;;;10.60;;
1178;SDS011;578;48.408;10.004;2023-12-28T00:50:25;12.50;;;10.90;;
1178;SDS011;578;48.408;10.004;2023-12-28T00:52:31;12.93;;;10.95;;
1178;SDS011;578;48.408;10.004;2023-12-28T00:54:32;13.30;;;11.47;;
1178;SDS011;578;48.408;10.004;2023-12-28T00:56:35;14.45;;;12.40;;
1178;SDS011;578;48.408;10.004;2023-12-28T00:58:40;13.25;;;12.00;;
1178;SDS011;578;48.408;10.004;2023-12-28T01:00:43;12.70;;;11.35;;
1178;SDS011;578;48.408;10.004;2023-12-28T01:02:45;12.68;;;11.40;;
1178;SDS011;578;48.408;10.004;2023-12-28T01:04:47;13.77;;;12.25;;
1178;SDS011;578;48.408;10.004;2023-12-28T01:06:49;13.75;;;11.32;;
1178;SDS011;578;48.408;10.004;2023-12-28T01:08:51;13.73;;;11.43;;
1178;SDS011;578;48.408;10.004;2023-12-28T01:10:53;11.73;;;10.52;;
1178;SDS011;578;48.408;10.004;2023-12-28T01:12:54;11.38;;;10.25;;
1178;SDS011;578;48.408;10.004;2023-12-28T01:14:57;12.68;;;11.43;;
1178;SDS011;578;48.408;10.004;2023-12-28T01:16:59;12.55;;;10.77;;
1178;SDS011;578;48.408;10.004;2023-12-28T01:19:01;11.90;;;10.60;;
1178;SDS011;578;48.408;10.004;2023-12-28T01:21:03;13.57;;;11.70;;
1178;SDS011;578;48.408;10.004;2023-12-28T01:23:05;13.80;;;10.90;;
1178;SDS011;578;48.408;10.004;2023-12-28T01:25:07;15.32;;;11.52;;
1178;SDS011;578;48.408;10.004;2023-12-28T01:27:08;13.40;;;11.57;;
1178;SDS011;578;48.408;10.004;2023-12-28T01:29:10;12.13;;;10.73;;
1178;SDS011;578;48.408;10.004;2023-12-28T01:31:13;11.85;;;9.95;;
1178;SDS011;578;48.408;10.004;2023-12-28T01:33:14;12.90;;;11.52;;
1178;SDS011;578;48.408;10.004;2023-12-28T01:35:16;12.48;;;11.15;;
1178;SDS011;578;48.408;10.004;2023-12-28T01:37:18;12.30;;;11.02;;
1178;SDS011;578;48.408;10.004;2023-12-28T01:39:19;12.57;;;10.90;;
1178;SDS011;578;48.408;10.004;2023-12-28T01:41:21;11.73;;;10.52;;
1178;SDS011;578;48.408;10.004;2023-12-28T01:43:23;11.32;;;10.27;;
1178;SDS011;578;48.408;10.004;2023-12-28T01:45:25;13.38;;;11.25;;
1178;SDS011;578;48.408;10.004;2023-12-28T01:47:28;13.60;;;11.35;;
1178;SDS011;578;48.408;10.004;2023-12-28T01:49:30;12.93;;;11.43;;
1178;SDS011;578;48.408;10.004;2023-12-28T01:51:32;14.45;;;11.95;;
1178;SDS011;578;48.408;10.004;2023-12-28T01:53:34;12.13;;;10.95;;
1178;SDS011;578;48.408;10.004;2023-12-28T01:55:37;11.68;;;10.48;;
1178;SDS011;578;48.408;10.004;2023-12-28T01:57:39;13.02;;;11.63;;
1178;SDS011;578;48.408;10.004;2023-12-28T01:59:41;13.93;;;12.48;;
1178;SDS011;578;48.408;10.004;2023-12-28T02:01:42;12.95;;;11.63;;
1178;SDS011;578;48.408;10.004;2023-12-28T02:03:45;14.88;;;11.43;;
1178;SDS011;578;48.408;10.004;2023-12-28T02:05:47;13.45;;;10.73;;
1178;SDS011;578;48.408;10.004;2023-12-28T02:07:49;12.30;;;11.07;;
1178;SDS011;578;48.408;10.004;2023-12-28T02:09:50;11.90;;;10.70;;
1178;SDS011;578;48.408;10.004;2023-12-28T02:11:52;13.90;;;11.10;;
1178;SDS011;578;48.408;10.004;2023-12-28T02:13:54;13.55;;;11.35;;
1178;SDS011;578;48.408;10.004;2023-12-28T02:15:57;16.33;;;11.32;;
1178;SDS011;578;48.408;10.004;2023-12-28T02:18:05;11.63;;;10.20;;
1178;SDS011;578;48.408;10.004;2023-12-28T02:20:12;12.10;;;10.90;;
1178;SDS011;578;48.408;10.004;2023-12-28T02:22:15;13.45;;;12.05;;
1178;SDS011;578;48.408;10.004;2023-12-28T02:24:18;13.05;;;11.40;;
1178;SDS011;578;48.408;10.004;2023-12-28T02:26:21;14.13;;;12.10;;
1178;SDS011;578;48.408;10.004;2023-12-28T02:28:22;11.55;;;10.50;;
1178;SDS011;578;48.408;10.004;2023-12-28T02:30:26;14.15;;;10.73;;
1178;SDS011;578;48.408;10.004;2023-12-28T02:32:36;11.93;;;10.73;;
1178;SDS011;578;48.408;10.004;2023-12-28T02:34:45;11.05;;;9.85;;
1178;SDS011;578;48.408;10.004;2023-12-28T02:36:51;12.52;;;11.05;;
1178;SDS011;578;48.408;10.004;2023-12-28T02:38:54;11.70;;;10.70;;
1178;SDS011;578;48.408;10.004;2023-12-28T02:40:59;14.32;;;10.50;;
1178;SDS011;578;48.408;10.004;2023-12-28T02:43:03;11.70;;;10.23;;
1178;SDS011;578;48.408;10.004;2023-12-28T02:45:06;13.43;;;10.50;;
1178;SDS011;578;48.408;10.004;2023-12-28T02:47:07;12.57;;;11.27;;
1178;SDS011;578;48.408;10.004;2023-12-28T02:49:09;13.48;;;10.55;;
1178;SDS011;578;48.408;10.004;2023-12-28T02:51:12;12.00;;;10.07;;
1178;SDS011;578;48.408;10.004;2023-12-28T02:53:13;12.80;;;11.20;;
1178;SDS011;578;48.408;10.004;2023-12-28T02:55:15;24.58;;;20.00;;
1178;SDS011;578;48.408;10.004;2023-12-28T02:57:17;13.73;;;12.30;;
1178;SDS011;578;48.408;10.004;2023-12-28T02:59:20;12.35;;;11.02;;
1178;SDS011;578;48.408;10.004;2023-12-28T03:01:22;10.50;;;9.50;;
1178;SDS011;578;48.408;10.004;2023-12-28T03:03:24;11.43;;;10.25;;
1178;SDS011;578;48.408;10.004;2023-12-28T03:05:25;13.45;;;10.60;;
1178;SDS011;578;48.408;10.004;2023-12-28T03:07:27;11.20;;;9.93;;
1178;SDS011;578;48.408;10.004;2023-12-28T03:09:28;11.80;;;10.60;;
1178;SDS011;578;48.408;10.004;2023-12-28T03:11:30;11.48;;;10.40;;
1178;SDS011;578;48.408;10.004;2023-12-28T03:13:31;10.73;;;9.55;;
1178;SDS011;578;48.408;10.004;2023-12-28T03:15:34;10.98;;;9.98;;
1178;SDS011;578;48.408;10.004;2023-12-28T03:17:36;11.30;;;10.05;;
1178;SDS011;578;48.408;10.004;2023-12-28T03:19:37;12.13;;;10.73;;
1178;SDS011;578;48.408;10.004;2023-12-28T03:21:39;12.82;;;9.80;;
1178;SDS011;578;48.408;10.004;2023-12-28T03:23:42;13.95;;;9.80;;
1178;SDS011;578;48.408;10.004;2023-12-28T03:25:44;11.10;;;10.00;;
1178;SDS011;578;48.408;10.004;2023-12-28T03:27:45;13.25;;;9.95;;
1178;SDS011;578;48.408;10.004;2023-12-28T03:29:47;10.68;;;9.52;;
1178;SDS011;578;48.408;10.004;2023-12-28T03:31:50;10.60;;;9.60;;
1178;SDS011;578;48.408;10.004;2023-12-28T03:33:52;10.23;;;9.23;;
1178;SDS011;578;48.408;10.004;2023-12-28T03:35:54;10.77;;;9.18;;
1178;SDS011;578;48.408;10.004;2023-12-28T03:37:55;9.55;;;8.65;;
1178;SDS011;578;48.408;10.004;2023-12-28T03:39:57;10.25;;;9.00;;
1178;SDS011;578;48.408;10.004;2023-12-28T03:41:59;10.43;;;8.80;;
1178;SDS011;578;48.408;10.004;2023-12-28T03:44:01;11.68;;;9.52;;
1178;SDS011;578;48.408;10.004;2023-12-28T03:46:01;11.27;;;8.53;;
1178;SDS011;578;48.408;10.004;2023-12-28T03:48:05;10.07;;;9.07;;
1178;SDS011;578;48.408;10.004;2023-12-28T03:50:07;9.30;;;8.25;;
1178;SDS011;578;48.408;10.004;2023-12-28T03:52:09;10.55;;;8.60;;
1178;SDS011;578;48.408;10.004;2023-12-28T03:54:11;11.07;;;8.45;;
1178;SDS011;578;48.408;10.004;2023-12-28T03:56:21;10.85;;;9.68;;
1178;SDS011;578;48.408;10.004;2023-12-28T03:58:23;11.63;;;8.50;;
1178;SDS011;578;48.408;10.004;2023-12-28T04:00:24;11.37;;;8.70;;
1178;SDS011;578;48.408;10.004;2023-12-28T04:02:26;12.38;;;8.32;;
1178;SDS011;578;48.408;10.004;2023-12-28T04:04:32;12.98;;;8.80;;
1178;SDS011;578;48.408;10.004;2023-12-28T04:06:34;13.60;;;8.73;;
1178;SDS011;578;48.408;10.004;2023-12-28T04:08:36;10.00;;;8.45;;
1178;SDS011;578;48.408;10.004;2023-12-28T04:10:37;9.30;;;8.40;;
1178;SDS011;578;48.408;10.004;2023-12-28T04:12:38;9.30;;;8.30;;
1178;SDS011;578;48.408;10.004;2023-12-28T04:14:40;9.43;;;8.52;;
1178;SDS011;578;48.408;10.004;2023-12-28T04:16:42;11.38;;;8.75;;
1178;SDS011;578;48.408;10.004;2023-12-28T04:18:44;9.50;;;8.52;;
1178;SDS011;578;48.408;10.004;2023-12-28T04:20:47;10.45;;;9.07;;
1178;SDS011;578;48.408;10.004;2023-12-28T04:22:48;11.57;;;9.50;;
1178;SDS011;578;48.408;10.004;2023-12-28T04:24:50;9.57;;;8.57;;
1178;SDS011;578;48.408;10.004;2023-12-28T04:26:52;9.40;;;8.50;;
1178;SDS011;578;48.408;10.004;2023-12-28T04:28:53;10.33;;;8.87;;
1178;SDS011;578;48.408;10.004;2023-12-28T04:30:54;8.93;;;8.02;;
1178;SDS011;578;48.408;10.004;2023-12-28T04:32:55;14.57;;;9.53;;
1178;SDS011;578;48.408;10.004;2023-12-28T04:34:58;11.35;;;9.73;;
1178;SDS011;578;48.408;10.004;2023-12-28T04:37:01;10.73;;;9.00;;
1178;SDS011;578;48.408;10.004;2023-12-28T04:39:03;10.63;;;9.52;;
1178;SDS011;578;48.408;10.004;2023-12-28T04:41:05;10.68;;;9.25;;
1178;SDS011;578;48.408;10.004;2023-12-28T04:43:07;11.60;;;8.32;;
1178;SDS011;578;48.408;10.004;2023-12-28T04:45:09;12.93;;;9.60;;
1178;SDS011;578;48.408;10.004;2023-12-28T04:47:11;11.95;;;9.30;;
1178;SDS011;578;48.408;10.004;2023-12-28T04:49:13;9.88;;;8.88;;
1178;SDS011;578;48.408;10.004;2023-12-28T04:51:15;9.80;;;8.88;;
1178;SDS011;578;48.408;10.004;2023-12-28T04:53:18;10.65;;;9.20;;
1178;SDS011;578;48.408;10.004;2023-12-28T04:55:19;10.60;;;8.55;;
1178;SDS011;578;48.408;10.004;2023-12-28T04:57:21;10.68;;;8.95;;
1178;SDS011;578;48.408;10.004;2023-12-28T04:59:24;8.82;;;7.82;;
1178;SDS011;578;48.408;10.004;2023-12-28T05:01:26;10.27;;;8.75;;
1178;SDS011;578;48.408;10.004;2023-12-28T05:03:29;9.77;;;8.77;;
1178;SDS011;578;48.408;10.004;2023-12-28T05:05:30;9.20;;;8.30;;
1178;SDS011;578;48.408;10.004;2023-12-28T05:07:31;12.70;;;9.53;;
1178;SDS011;578;48.408;10.004;2023-12-28T05:09:34;12.70;;;9.05;;
1178;SDS011;578;48.408;10.004;2023-12-28T05:11:36;10.13;;;8.35;;
1178;SDS011;578;48.408;10.004;2023-12-28T05:13:38;10.88;;;9.05;;
1178;SDS011;578;48.408;10.004;2023-12-28T05:15:40;9.60;;;7.80;;
1178;SDS011;578;48.408;10.004;2023-12-28T05:17:42;9.13;;;8.23;;
1178;SDS011;578;48.408;10.004;2023-12-28T05:19:44;10.32;;;8.57;;
1178;SDS011;578;48.408;10.004;2023-12-28T05:21:45;9.75;;;8.30;;
1178;SDS011;578;48.408;10.004;2023-12-28T05:23:47;9.82;;;8.82;;
1178;SDS011;578;48.408;10.004;2023-12-28T05:25:50;12.75;;;9.05;;
1178;SDS011;578;48.408;10.004;2023-12-28T05:27:52;8.98;;;8.00;;
1178;SDS011;578;48.408;10.004;2023-12-28T05:29:53;8.95;;;8.05;;
1178;SDS011;578;48.408;10.004;2023-12-28T05:31:54;12.40;;;9.60;;
1178;SDS011;578;48.408;10.004;2023-12-28T05:33:56;10.73;;;8.77;;
1178;SDS011;578;48.408;10.004;2023-12-28T05:35:58;8.95;;;8.15;;
1178;SDS011;578;48.408;10.004;2023-12-28T05:38:00;9.73;;;8.73;;
1178;SDS011;578;48.408;10.004;2023-12-28T05:40:02;10.88;;;8.63;;
1178;SDS011;578;48.408;10.004;2023-12-28T05:42:05;10.23;;;8.65;;
1178;SDS011;578;48.408;10.004;2023-12-28T05:44:07;10.20;;;9.15;;
1178;SDS011;578;48.408;10.004;2023-12-28T05:46:08;10.23;;;8.20;;
1178;SDS011;578;48.408;10.004;2023-12-28T05:48:10;10.00;;;8.40;;
1178;SDS011;578;48.408;10.004;2023-12-28T05:50:11;10.48;;;8.30;;
1178;SDS011;578;48.408;10.004;2023-12-28T05:52:13;9.27;;;8.38;;
1178;SDS011;578;48.408;10.004;2023-12-28T05:54:18;8.63;;;7.75;;
1178;SDS011;578;48.408;10.004;2023-12-28T05:56:20;10.55;;;7.90;;
1178;SDS011;578;48.408;10.004;2023-12-28T05:58:23;9.15;;;8.25;;
1178;SDS011;578;48.408;10.004;2023-12-28T06:00:24;9.15;;;8.32;;
1178;SDS011;578;48.408;10.004;2023-12-28T06:02:26;9.57;;;8.63;;
1178;SDS011;578;48.408;10.004;2023-12-28T06:04:28;9.90;;;8.90;;
1178;SDS011;578;48.408;10.004;2023-12-28T06:06:29;9.75;;;8.85;;
1178;SDS011;578;48.408;10.004;2023-12-28T06:08:30;9.40;;;8.50;;
1178;SDS011;578;48.408;10.004;2023-12-28T06:10:32;9.40;;;8.48;;
1178;SDS011;578;48.408;10.004;2023-12-28T06:12:34;9.80;;;8.80;;
1178;SDS011;578;48.408;10.004;2023-12-28T06:14:37;10.98;;;8.60;;
1178;SDS011;578;48.408;10.004;2023-12-28T06:16:39;10.77;;;8.73;;
1178;SDS011;578;48.408;10.004;2023-12-28T06:18:41;8.77;;;7.97;;
1178;SDS011;578;48.408;10.004;2023-12-28T06:20:42;9.77;;;8.87;;
1178;SDS011;578;48.408;10.004;2023-12-28T06:22:43;10.18;;;9.13;;
1178;SDS011;578;48.408;10.004;2023-12-28T06:24:48;8.20;;;7.40;;
1178;SDS011;578;48.408;10.004;2023-12-28T06:26:50;9.55;;;8.55;;
1178;SDS011;578;48.408;10.004;2023-12-28T06:28:52;8.35;;;7.55;;
1178;SDS011;578;48.408;10.004;2023-12-28T06:30:55;9.25;;;7.55;;
1178;SDS011;578;48.408;10.004;2023-12-28T06:33:00;10.13;;;8.95;;
1178;SDS011;578;48.408;10.004;2023-12-28T06:35:01;9.88;;;8.55;;
1178;SDS011;578;48.408;10.004;2023-12-28T06:37:03;8.93;;;8.07;;
1178;SDS011;578;48.408;10.004;2023-12-28T06:39:05;12.80;;;8.90;;
1178;SDS011;578;48.408;10.004;2023-12-28T06:41:11;9.65;;;8.52;;
1178;SDS011;578;48.408;10.004;2023-12-28T06:43:13;9.55;;;8.65;;
1178;SDS011;578;48.408;10.004;2023-12-28T06:45:15;10.15;;;9.10;;
1178;SDS011;578;48.408;10.004;2023-12-28T06:47:18;11.70;;;8.35;;
1178;SDS011;578;48.408;10.004;2023-12-28T06:49:20;12.73;;;8.73;;
1178;SDS011;578;48.408;10.004;2023-12-28T06:51:22;9.60;;;8.68;;
1178;SDS011;578;48.408;10.004;2023-12-28T06:53:24;10.15;;;9.15;;
1178;SDS011;578;48.408;10.004;2023-12-28T06:55:25;10.60;;;9.20;;
1178;SDS011;578;48.408;10.004;2023-12-28T06:57:27;9.10;;;8.20;;
1178;SDS011;578;48.408;10.004;2023-12-28T06:59:29;11.23;;;9.98;;
1178;SDS011;578;48.408;10.004;2023-12-28T07:01:30;12.25;;;10.20;;
1178;SDS011;578;48.408;10.004;2023-12-28T07:03:33;10.13;;;9.00;;
1178;SDS011;578;48.408;10.004;2023-12-28T07:05:35;13.13;;;10.23;;
1178;SDS011;578;48.408;10.004;2023-12-28T07:07:36;11.75;;;10.10;;
1178;SDS011;578;48.408;10.004;2023-12-28T07:09:38;12.60;;;11.40;;
1178;SDS011;578;48.408;10.004;2023-12-28T07:11:40;12.80;;;11.48;;
1178;SDS011;578;48.408;10.004;2023-12-28T07:13:42;12.10;;;10.90;;
1178;SDS011;578;48.408;10.004;2023-12-28T07:15:43;10.85;;;9.85;;
1178;SDS011;578;48.408;10.004;2023-12-28T07:17:45;12.70;;;11.40;;
1178;SDS011;578;48.408;10.004;2023-12-28T07:19:48;11.90;;;10.75;;
1178;SDS011;578;48.408;10.004;2023-12-28T07:21:50;11.35;;;10.13;;
1178;SDS011;578;48.408;10.004;2023-12-28T07:23:52;10.43;;;9.43;;
1178;SDS011;578;48.408;10.004;2023-12-28T07:25:54;11.30;;;10.10;;
1178;SDS011;578;48.408;10.004;2023-12-28T07:27:55;12.02;;;10.00;;
1178;SDS011;578;48.408;10.004;2023-12-28T07:29:57;10.68;;;9.57;;
1178;SDS011;578;48.408;10.004;2023-12-28T07:31:59;12.55;;;9.80;;
1178;SDS011;578;48.408;10.004;2023-12-28T07:34:01;9.55;;;8.60;;
1178;SDS011;578;48.408;10.004;2023-12-28T07:36:04;10.35;;;9.25;;
1178;SDS011;578;48.408;10.004;2023-12-28T07:38:06;11.80;;;9.25;;
1178;SDS011;578;48.408;10.004;2023-12-28T07:40:08;11.73;;;8.82;;
1178;SDS011;578;48.408;10.004;2023-12-28T07:42:10;11.65;;;10.23;;
1178;SDS011;578;48.408;10.004;2023-12-28T07:44:12;14.73;;;9.30;;
1178;SDS011;578;48.408;10.004;2023-12-28T07:46:14;11.82;;;9.85;;
1178;SDS011;578;48.408;10.004;2023-12-28T07:48:16;11.18;;;8.77;;
1178;SDS011;578;48.408;10.004;2023-12-28T07:50:17;9.38;;;8.48;;
1178;SDS011;578;48.408;10.004;2023-12-28T07:52:21;9.93;;;8.50;;
1178;SDS011;578;48.408;10.004;2023-12-28T07:54:22;8.55;;;7.65;;
1178;SDS011;578;48.408;10.004;2023-12-28T07:56:24;8.20;;;7.45;;
1178;SDS011;578;48.408;10.004;2023-12-28T07:58:26;8.30;;;7.50;;
1178;SDS011;578;48.408;10.004;2023-12-28T08:00:28;8.73;;;7.97;;
1178;SDS011;578;48.408;10.004;2023-12-28T08:02:29;9.07;;;7.93;;
1178;SDS011;578;48.408;10.004;2023-12-28T08:04:31;8.35;;;7.55;;
1178;SDS011;578;48.408;10.004;2023-12-28T08:06:32;8.30;;;7.30;;
1178;SDS011;578;48.408;10.004;2023-12-28T08:08:35;9.00;;;8.10;;
1178;SDS011;578;48.408;10.004;2023-12-28T08:10:37;9.52;;;8.55;;
1178;SDS011;578;48.408;10.004;2023-12-28T08:12:38;10.17;;;9.07;;
1178;SDS011;578;48.408;10.004;2023-12-28T08:14:40;9.65;;;8.65;;
1178;SDS011;578;48.408;10.004;2023-12-28T08:16:41;13.25;;;8.98;;
1178;SDS011;578;48.408;10.004;2023-12-28T08:18:43;9.15;;;8.02;;
1178;SDS011;578;48.408;10.004;2023-12-28T08:20:45;11.60;;;9.20;;
1178;SDS011;578;48.408;10.004;2023-12-28T08:22:46;10.70;;;7.80;;
1178;SDS011;578;48.408;10.004;2023-12-28T08:24:49;11.95;;;8.48;;
1178;SDS011;578;48.408;10.004;2023-12-28T08:26:51;9.95;;;8.10;;
1178;SDS011;578;48.408;10.004;2023-12-28T08:28:53;10.57;;;8.55;;
1178;SDS011;578;48.408;10.004;2023-12-28T08:30:55;10.35;;;8.30;;
1178;SDS011;578;48.408;10.004;2023-12-28T08:32:58;8.77;;;7.97;;
1178;SDS011;578;48.408;10.004;2023-12-28T08:34:59;7.38;;;6.70;;
1178;SDS011;578;48.408;10.004;2023-12-28T08:37:02;10.73;;;7.35;;
1178;SDS011;578;48.408;10.004;2023-12-28T08:39:04;12.98;;;7.95;;
1178;SDS011;578;48.408;10.004;2023-12-28T08:41:16;8.23;;;7.32;;
1178;SDS011;578;48.408;10.004;2023-12-28T08:43:18;7.80;;;7.00;;
1178;SDS011;578;48.408;10.004;2023-12-28T08:45:20;11.48;;;8.27;;
1178;SDS011;578;48.408;10.004;2023-12-28T08:47:21;10.75;;;7.65;;
1178;SDS011;578;48.408;10.004;2023-12-28T08:49:24;8.38;;;7.18;;
1178;SDS011;578;48.408;10.004;2023-12-28T08:51:25;9.30;;;7.13;;
1178;SDS011;578;48.408;10.004;2023-12-28T08:53:27;8.38;;;6.70;;
1178;SDS011;578;48.408;10.004;2023-12-28T08:55:29;8.00;;;7.10;;
1178;SDS011;578;48.408;10.004;2023-12-28T08:57:32;7.63;;;6.90;;
1178;SDS011;578;48.408;10.004;2023-12-28T08:59:35;9.10;;;6.90;;
1178;SDS011;578;48.408;10.004;2023-12-28T09:01:37;6.65;;;6.00;;
1178;SDS011;578;48.408;10.004;2023-12-28T09:03:38;7.43;;;6.60;;
1178;SDS011;578;48.408;10.004;2023-12-28T09:05:40;6.63;;;6.03;;
1178;SDS011;578;48.408;10.004;2023-12-28T09:07:42;7.05;;;5.70;;
1178;SDS011;578;48.408;10.004;2023-12-28T09:09:44;6.45;;;5.88;;
1178;SDS011;578;48.408;10.004;2023-12-28T09:11:45;10.30;;;6.15;;
1178;SDS011;578;48.408;10.004;2023-12-28T09:13:48;6.95;;;6.00;;
1178;SDS011;578;48.408;10.004;2023-12-28T09:15:50;9.65;;;6.38;;
1178;SDS011;578;48.408;10.004;2023-12-28T09:17:52;11.93;;;5.90;;
1178;SDS011;578;48.408;10.004;2023-12-28T09:19:54;7.60;;;6.00;;
1178;SDS011;578;48.408;10.004;2023-12-28T09:21:55;7.20;;;6.05;;
1178;SDS011;578;48.408;10.004;2023-12-28T09:23:57;7.55;;;6.85;;
1178;SDS011;578;48.408;10.004;2023-12-28T09:25:59;6.43;;;5.82;;
1178;SDS011;578;48.408;10.004;2023-12-28T09:28:01;7.15;;;5.82;;
1178;SDS011;578;48.408;10.004;2023-12-28T09:30:05;6.30;;;5.70;;
1178;SDS011;578;48.408;10.004;2023-12-28T09:32:07;10.68;;;5.95;;
1178;SDS011;578;48.408;10.004;2023-12-28T09:34:09;7.10;;;6.15;;
1178;SDS011;578;48.408;10.004;2023-12-28T09:36:11;6.07;;;4.80;;
1178;SDS011;578;48.408;10.004;2023-12-28T09:38:13;8.20;;;5.82;;
1178;SDS011;578;48.408;10.004;2023-12-28T09:40:14;8.10;;;5.97;;
1178;SDS011;578;48.408;10.004;2023-12-28T09:42:16;9.23;;;6.32;;
1178;SDS011;578;48.408;10.004;2023-12-28T09:44:26;6.38;;;5.70;;
1178;SDS011;578;48.408;10.004;2023-12-28T09:46:33;7.90;;;5.90;;
1178;SDS011;578;48.408;10.004;2023-12-28T09:48:35;6.40;;;5.80;;
1178;SDS011;578;48.408;10.004;2023-12-28T09:50:39;6.70;;;5.88;;
1178;SDS011;578;48.408;10.004;2023-12-28T09:52:41;6.10;;;5.60;;
1178;SDS011;578;48.408;10.004;2023-12-28T09:54:43;7.45;;;6.28;;
1178;SDS011;578;48.408;10.004;2023-12-28T09:56:45;8.25;;;6.15;;
1178;SDS011;578;48.408;10.004;2023-12-28T09:58:47;6.60;;;6.00;;
1178;SDS011;578;48.408;10.004;2023-12-28T10:00:51;7.43;;;6.63;;
1178;SDS011;578;48.408;10.004;2023-12-28T10:02:53;7.40;;;6.00;;
1178;SDS011;578;48.408;10.004;2023-12-28T10:04:54;6.88;;;6.18;;
1178;SDS011;578;48.408;10.004;2023-12-28T10:06:56;40.70;;;32.40;;
1178;SDS011;578;48.408;10.004;2023-12-28T10:08:58;8.10;;;6.30;;
1178;SDS011;578;48.408;10.004;2023-12-28T10:11:00;9.60;;;6.93;;
1178;SDS011;578;48.408;10.004;2023-12-28T10:13:03;6.60;;;6.03;;
1178;SDS011;578;48.408;10.004;2023-12-28T10:15:07;9.40;;;6.90;;
1178;SDS011;578;48.408;10.004;2023-12-28T10:17:08;7.53;;;6.80;;
1178;SDS011;578;48.408;10.004;2023-12-28T10:19:11;6.90;;;5.90;;
1178;SDS011;578;48.408;10.004;2023-12-28T10:21:13;7.40;;;6.70;;
1178;SDS011;578;48.408;10.004;2023-12-28T10:23:15;10.88;;;6.00;;
1178;SDS011;578;48.408;10.004;2023-12-28T10:25:16;7.53;;;6.10;;
1178;SDS011;578;48.408;10.004;2023-12-28T10:27:18;8.98;;;6.93;;
1178;SDS011;578;48.408;10.004;2023-12-28T10:29:19;7.13;;;6.43;;
1178;SDS011;578;48.408;10.004;2023-12-28T10:31:21;7.15;;;6.45;;
1178;SDS011;578;48.408;10.004;2023-12-28T10:33:22;7.20;;;6.17;;
1178;SDS011;578;48.408;10.004;2023-12-28T10:35:25;7.85;;;6.07;;
1178;SDS011;578;48.408;10.004;2023-12-28T10:37:27;8.15;;;6.93;;
1178;SDS011;578;48.408;10.004;2023-12-28T10:39:31;7.70;;;7.00;;
1178;SDS011;578;48.408;10.004;2023-12-28T10:41:35;6.75;;;5.25;;
1178;SDS011;578;48.408;10.004;2023-12-28T10:43:41;7.95;;;6.35;;
1178;SDS011;578;48.408;10.004;2023-12-28T10:45:47;6.50;;;5.90;;
1178;SDS011;578;48.408;10.004;2023-12-28T10:47:54;7.15;;;6.05;;
1178;SDS011;578;48.408;10.004;2023-12-28T10:50:02;7.10;;;6.40;;
1178;SDS011;578;48.408;10.004;2023-12-28T10:52:07;7.50;;;6.43;;
1178;SDS011;578;48.408;10.004;2023-12-28T10:54:16;8.35;;;7.30;;
1178;SDS011;578;48.408;10.004;2023-12-28T10:56:29;7.72;;;6.95;;
1178;SDS011;578;48.408;10.004;2023-12-28T10:58:39;6.93;;;6.30;;
1178;SDS011;578;48.408;10.004;2023-12-28T11:00:52;8.02;;;6.40;;
1178;SDS011;578;48.408;10.004;2023-12-28T11:02:58;7.22;;;5.85;;
1178;SDS011;578;48.408;10.004;2023-12-28T11:05:04;7.28;;;6.57;;
1178;SDS011;578;48.408;10.004;2023-12-28T11:07:08;7.03;;;6.28;;
1178;SDS011;578;48.408;10.004;2023-12-28T11:09:10;6.05;;;5.55;;
1178;SDS011;578;48.408;10.004;2023-12-28T11:11:12;6.60;;;6.00;;
1178;SDS011;578;48.408;10.004;2023-12-28T11:13:15;7.43;;;6.05;;
1178;SDS011;578;48.408;10.004;2023-12-28T11:15:18;6.38;;;5.78;;
1178;SDS011;578;48.408;10.004;2023-12-28T11:17:20;7.20;;;6.50;;
1178;SDS011;578;48.408;10.004;2023-12-28T11:19:23;7.28;;;6.57;;
1178;SDS011;578;48.408;10.004;2023-12-28T11:21:25;11.48;;;7.07;;
1178;SDS011;578;48.408;10.004;2023-12-28T11:23:29;8.52;;;6.03;;
1178;SDS011;578;48.408;10.004;2023-12-28T11:25:31;7.30;;;6.55;;
1178;SDS011;578;48.408;10.004;2023-12-28T11:27:33;9.43;;;7.25;;
1178;SDS011;578;48.408;10.004;2023-12-28T11:29:36;6.50;;;5.72;;
1178;SDS011;578;48.408;10.004;2023-12-28T11:31:38;8.35;;;5.97;;
1178;SDS011;578;48.408;10.004;2023-12-28T11:33:43;7.35;;;6.65;;
1178;SDS011;578;48.408;10.004;2023-12-28T11:35:44;8.00;;;7.30;;
1178;SDS011;578;48.408;10.004;2023-12-28T11:37:51;7.68;;;5.75;;
1178;SDS011;578;48.408;10.004;2023-12-28T11:39:55;7.10;;;5.75;;
1178;SDS011;578;48.408;10.004;2023-12-28T11:42:00;6.90;;;6.20;;
1178;SDS011;578;48.408;10.004;2023-12-28T11:44:03;7.03;;;6.20;;
1178;SDS011;578;48.408;10.004;2023-12-28T11:46:05;8.20;;;7.22;;
1178;SDS011;578;48.408;10.004;2023-12-28T11:48:10;10.02;;;5.97;;
1178;SDS011;578;48.408;10.004;2023-12-28T11:50:11;10.77;;;6.77;;
1178;SDS011;578;48.408;10.004;2023-12-28T11:52:21;8.20;;;6.47;;
1178;SDS011;578;48.408;10.004;2023-12-28T11:54:24;6.65;;;6.00;;
1178;SDS011;578;48.408;10.004;2023-12-28T11:56:28;6.32;;;5.72;;
1178;SDS011;578;48.408;10.004;2023-12-28T11:58:28;5.75;;;5.25;;
1178;SDS011;578;48.408;10.004;2023-12-28T12:00:30;8.23;;;6.00;;
1178;SDS011;578;48.408;10.004;2023-12-28T12:02:32;5.85;;;5.30;;
1178;SDS011;578;48.408;10.004;2023-12-28T12:04:34;8.13;;;5.85;;
1178;SDS011;578;48.408;10.004;2023-12-28T12:06:35;7.00;;;6.05;;
1178;SDS011;578;48.408;10.004;2023-12-28T12:08:37;6.55;;;5.90;;
1178;SDS011;578;48.408;10.004;2023-12-28T12:10:38;6.37;;;5.77;;
1178;SDS011;578;48.408;10.004;2023-12-28T12:12:41;7.75;;;6.25;;
1178;SDS011;578;48.408;10.004;2023-12-28T12:14:42;7.20;;;5.90;;
1178;SDS011;578;48.408;10.004;2023-12-28T12:16:44;7.47;;;6.18;;
1178;SDS011;578;48.408;10.004;2023-12-28T12:18:45;6.95;;;5.57;;
1178;SDS011;578;48.408;10.004;2023-12-28T12:20:48;6.57;;;5.78;;
1178;SDS011;578;48.408;10.004;2023-12-28T12:22:50;7.30;;;6.15;;
1178;SDS011;578;48.408;10.004;2023-12-28T12:24:52;7.35;;;5.97;;
1178;SDS011;578;48.408;10.004;2023-12-28T12:26:55;6.90;;;6.25;;
1178;SDS011;578;48.408;10.004;2023-12-28T12:28:58;7.47;;;6.00;;
1178;SDS011;578;48.408;10.004;2023-12-28T12:31:01;7.35;;;6.53;;